Jette Viking Hv77 — 5QEP — position and weather

sailwx.info

Track history (hours):
 
Tides and Currents Weather Stations Pressure Air Temp Water Temp Dewpoint Dewpoint Depression Visibility Wind Speed Wind Dir Waves Ship Positions

Jette Viking Hv77

Last reported at 2017-Jun-28 04:29 UTC. Time now 2017-Jun-28 12:06 UTC.
Position N 57°30' E 010°30'.

Length 16 m.

Type: Fishing. MMSI: 220046000.

Date/timePositionNaut miles runAvg speedWind from/ knotsBaromVisibWave heightAir tempDewpointWater temp
2017-Jun-28 04:29N 57°30' E 010°30'1 1.7
2017-Jun-28 03:43N 57°29' E 010°33'5 3.3
2017-Jun-28 02:15N 57°29' E 010°42'4 2.1
2017-Jun-28 00:23N 57°33' E 010°40'1 2.5
2017-Jun-27 23:50N 57°35' E 010°40'1 2.3
2017-Jun-27 23:25N 57°36' E 010°41'1 2.5
2017-Jun-27 23:00N 57°35' E 010°41'1 2.6
2017-Jun-27 22:29N 57°33' E 010°42'1 2.5
2017-Jun-27 22:00N 57°32' E 010°42'1 2.5
2017-Jun-27 21:30N 57°31' E 010°42'1 2.5
2017-Jun-27 20:55N 57°29' E 010°42'1 2.6
2017-Jun-27 20:30N 57°28' E 010°43'1 2.5
2017-Jun-27 20:00N 57°27' E 010°43'2 3.9
2017-Jun-27 19:23N 57°28' E 010°39'2 5.8
2017-Jun-27 18:59N 57°29' E 010°35'2 5.0
2017-Jun-27 18:29N 57°30' E 010°30'0 0.0
2017-Jun-27 18:00N 57°30' E 010°30'0 0.0
2017-Jun-27 17:29N 57°30' E 010°30'0 0.0
2017-Jun-27 17:00N 57°30' E 010°30'0 0.0
2017-Jun-27 16:30N 57°30' E 010°30'0 0.0
2017-Jun-27 15:59N 57°30' E 010°30'0 0.0
2017-Jun-27 15:30N 57°30' E 010°30'0 0.0
2017-Jun-27 15:00N 57°30' E 010°30'0 0.0
2017-Jun-27 14:30N 57°30' E 010°30'0 0.0
2017-Jun-26 02:22N 57°30' E 010°30'0 0.0
2017-Jun-26 01:52N 57°30' E 010°30'0 0.0
2017-Jun-26 01:29N 57°30' E 010°30'0 0.0
2017-Jun-26 00:58N 57°30' E 010°30'0 0.0
2017-Jun-26 00:30N 57°30' E 010°30'0 0.0
2017-Jun-26 00:00N 57°30' E 010°30'0 0.0
2017-Jun-25 23:29N 57°30' E 010°30'0 0.0
2017-Jun-25 02:15N 57°30' E 010°30'0 0.0
2017-Jun-25 01:59N 57°30' E 010°30'0 0.0
2017-Jun-25 01:30N 57°30' E 010°30'0 0.0
2017-Jun-25 01:00N 57°30' E 010°30'0 0.0
2017-Jun-25 00:30N 57°30' E 010°30'0 0.0
2017-Jun-23 16:14N 57°30' E 010°30'0 0.0
2017-Jun-23 11:34N 57°30' E 010°30'0 0.0
2017-Jun-23 11:20N 57°30' E 010°30'0 0.0
2017-Jun-23 10:59N 57°30' E 010°30'0 0.0
2017-Jun-23 10:30N 57°30' E 010°30'0 0.0
2017-Jun-23 10:00N 57°30' E 010°30'0 0.0
2017-Jun-23 09:29N 57°30' E 010°30'0 0.0
2017-Jun-23 08:49N 57°30' E 010°30'0 0.0
2017-Jun-23 08:30N 57°30' E 010°30'0 0.0
2017-Jun-23 08:00N 57°30' E 010°30'0 0.0
2017-Jun-23 07:30N 57°30' E 010°30'0 0.0
2017-Jun-23 07:00N 57°30' E 010°30'0 0.0
2017-Jun-23 06:30N 57°30' E 010°30'0 0.0
2017-Jun-23 05:59N 57°30' E 010°30'0 0.0
2017-Jun-23 05:30N 57°30' E 010°30'0 0.0
2017-Jun-23 05:00N 57°30' E 010°30'0 0.0
2017-Jun-23 04:25N 57°30' E 010°30'0 0.3
2017-Jun-23 04:00N 57°30' E 010°30'3 5.8
2017-Jun-23 03:30N 57°29' E 010°35'4 7.0
2017-Jun-23 03:00N 57°28' E 010°41'4 7.1
2017-Jun-23 02:30N 57°27' E 010°48'2 3.1
2017-Jun-23 02:00N 57°27' E 010°51'1 2.5
2017-Jun-23 01:30N 57°28' E 010°53'1 2.6
2017-Jun-23 00:59N 57°28' E 010°55'1 2.7
2017-Jun-23 00:30N 57°29' E 010°57'1 2.4
2017-Jun-22 23:59N 57°30' E 010°59'1 2.4
2017-Jun-22 23:30N 57°31' E 011°00'1 2.5
2017-Jun-22 23:00N 57°32' E 011°02'1 1.6
2017-Jun-22 22:30N 57°31' E 011°01'1 2.5
2017-Jun-22 21:59N 57°30' E 010°59'1 2.5
2017-Jun-22 21:28N 57°29' E 010°57'1 2.6
2017-Jun-22 20:59N 57°29' E 010°55'1 2.6
2017-Jun-22 20:30N 57°28' E 010°53'1 2.5
2017-Jun-22 19:58N 57°28' E 010°50'1 2.8
2017-Jun-22 19:30N 57°28' E 010°48'3 6.5
2017-Jun-22 19:00N 57°28' E 010°42'3 6.6
2017-Jun-22 18:30N 57°29' E 010°36'3 5.9
2017-Jun-22 18:00N 57°30' E 010°31'0 0.2
2017-Jun-22 17:23N 57°30' E 010°30'0 0.0
2017-Jun-22 16:58N 57°30' E 010°30'0 0.0
2017-Jun-22 07:52N 57°30' E 010°30'0 0.0
2017-Jun-22 07:28N 57°30' E 010°30'0 0.0
2017-Jun-22 06:59N 57°30' E 010°30'0 0.0
2017-Jun-22 06:29N 57°30' E 010°30'0 0.0
2017-Jun-22 05:59N 57°30' E 010°30'1 0.8
2017-Jun-22 04:29N 57°30' E 010°32'5 2.8
2017-Jun-22 02:34N 57°27' E 010°41'0 7.2
2017-Jun-22 02:30N 57°27' E 010°41'3 6.1
2017-Jun-22 01:56N 57°25' E 010°47'1 2.0
2017-Jun-22 01:15N 57°26' E 010°49'1 2.7
2017-Jun-22 00:57N 57°27' E 010°50'1 2.7
2017-Jun-22 00:30N 57°27' E 010°52'1 2.6
2017-Jun-22 00:00N 57°28' E 010°55'1 2.6
2017-Jun-21 23:29N 57°28' E 010°57'1 2.4
2017-Jun-21 22:58N 57°29' E 010°59'1 1.8
2017-Jun-21 22:29N 57°28' E 010°58'1 2.5
2017-Jun-21 22:00N 57°27' E 010°56'1 2.5
2017-Jun-21 21:30N 57°27' E 010°54'1 2.6
2017-Jun-21 20:59N 57°26' E 010°52'1 2.6
2017-Jun-21 20:30N 57°25' E 010°50'1 2.6
2017-Jun-21 20:00N 57°24' E 010°48'1 2.6
2017-Jun-21 19:30N 57°24' E 010°46'6 6.4
2017-Jun-21 18:32N 57°28' E 010°38'0 6.6
2017-Jun-21 18:28N 57°29' E 010°37'3 5.6
2017-Jun-21 17:59N 57°29' E 010°33'5 0.3
2017-Jun-21 01:33N 57°28' E 010°41'0 2.7
2017-Jun-21 01:28N 57°27' E 010°41'2 2.6
2017-Jun-21 00:53N 57°26' E 010°41'2 2.6
2017-Jun-21 00:13N 57°24' E 010°42'2 2.5
2017-Jun-20 23:32N 57°23' E 010°44'3 0.1
2017-Jun-19 23:58N 57°26' E 010°42'2 2.5
2017-Jun-19 23:12N 57°24' E 010°43'1 2.6
2017-Jun-19 23:00N 57°24' E 010°44'7 2.3
2017-Jun-19 19:44N 57°31' E 010°42'1 5.4
2017-Jun-19 19:29N 57°31' E 010°39'2 4.7
2017-Jun-19 19:00N 57°31' E 010°35'3 5.1
2017-Jun-19 18:30N 57°30' E 010°31'0 0.3
2017-Jun-19 17:59N 57°30' E 010°30'0 0.0
2017-Jun-19 17:28N 57°30' E 010°30'0 0.0
2017-Jun-19 16:49N 57°30' E 010°30'0 0.0
2017-Jun-19 16:25N 57°30' E 010°30'0 0.0
2017-Jun-19 08:27N 57°30' E 010°30'0 0.0
2017-Jun-19 08:00N 57°30' E 010°30'0 0.0
2017-Jun-19 07:30N 57°30' E 010°30'0 0.0
2017-Jun-19 06:16N 57°30' E 010°30'0 0.0
2017-Jun-19 05:48N 57°30' E 010°30'0 0.0
2017-Jun-19 04:52N 57°30' E 010°30'0 0.3
2017-Jun-19 04:30N 57°30' E 010°30'1 1.8
2017-Jun-19 03:59N 57°30' E 010°32'0 0.4
2017-Jun-19 03:27N 57°30' E 010°32'1 2.6
2017-Jun-19 03:00N 57°29' E 010°34'3 6.3
2017-Jun-19 02:29N 57°29' E 010°40'2 2.8
2017-Jun-19 01:54N 57°29' E 010°42'1 2.6
2017-Jun-19 01:28N 57°30' E 010°42'1 2.6
2017-Jun-19 00:59N 57°32' E 010°42'1 2.6
2017-Jun-19 00:28N 57°33' E 010°41'2 2.4
2017-Jun-18 23:46N 57°34' E 010°41'1 2.4
2017-Jun-18 23:24N 57°34' E 010°42'1 2.6
2017-Jun-18 22:58N 57°33' E 010°42'1 2.6
2017-Jun-18 22:30N 57°31' E 010°42'2 2.6
2017-Jun-18 21:54N 57°30' E 010°43'1 2.6
2017-Jun-18 21:25N 57°29' E 010°43'2 2.5
2017-Jun-18 20:38N 57°27' E 010°43'0 2.6
2017-Jun-18 20:30N 57°26' E 010°43'1 2.5
2017-Jun-18 19:57N 57°25' E 010°44'4 3.6
2017-Jun-18 18:58N 57°27' E 010°39'4 5.4
2017-Jun-18 18:10N 57°30' E 010°32'1 0.1
2017-Jun-18 05:46N 57°30' E 010°30'0 0.0
2017-Jun-18 05:11N 57°30' E 010°30'0 0.3
2017-Jun-18 04:44N 57°30' E 010°30'1 3.7
2017-Jun-18 04:30N 57°30' E 010°32'  
Track history (hours):
 
Tides and Currents Weather Stations Pressure Air Temp Water Temp Dewpoint Dewpoint Depression Visibility Wind Speed Wind Dir Waves Ship Positions

Jette Viking Hv77

Last reported at 2017-Jun-28 04:29 UTC. Time now 2017-Jun-28 12:06 UTC.
Position N 57°30' E 010°30'.

Length 16 m.

Type: Fishing. MMSI: 220046000.

Date/timePositionNaut miles runAvg speedWind from/ knotsBaromVisibWave heightAir tempDewpointWater temp
2017-Jun-28 04:29N 57°30' E 010°30'1 1.7
2017-Jun-28 03:43N 57°29' E 010°33'5 3.3
2017-Jun-28 02:15N 57°29' E 010°42'4 2.1
2017-Jun-28 00:23N 57°33' E 010°40'1 2.5
2017-Jun-27 23:50N 57°35' E 010°40'1 2.3
2017-Jun-27 23:25N 57°36' E 010°41'1 2.5
2017-Jun-27 23:00N 57°35' E 010°41'1 2.6
2017-Jun-27 22:29N 57°33' E 010°42'1 2.5
2017-Jun-27 22:00N 57°32' E 010°42'1 2.5
2017-Jun-27 21:30N 57°31' E 010°42'1 2.5
2017-Jun-27 20:55N 57°29' E 010°42'1 2.6
2017-Jun-27 20:30N 57°28' E 010°43'1 2.5
2017-Jun-27 20:00N 57°27' E 010°43'2 3.9
2017-Jun-27 19:23N 57°28' E 010°39'2 5.8
2017-Jun-27 18:59N 57°29' E 010°35'2 5.0
2017-Jun-27 18:29N 57°30' E 010°30'0 0.0
2017-Jun-27 18:00N 57°30' E 010°30'0 0.0
2017-Jun-27 17:29N 57°30' E 010°30'0 0.0
2017-Jun-27 17:00N 57°30' E 010°30'0 0.0
2017-Jun-27 16:30N 57°30' E 010°30'0 0.0
2017-Jun-27 15:59N 57°30' E 010°30'0 0.0
2017-Jun-27 15:30N 57°30' E 010°30'0 0.0
2017-Jun-27 15:00N 57°30' E 010°30'0 0.0
2017-Jun-27 14:30N 57°30' E 010°30'0 0.0
2017-Jun-26 02:22N 57°30' E 010°30'0 0.0
2017-Jun-26 01:52N 57°30' E 010°30'0 0.0
2017-Jun-26 01:29N 57°30' E 010°30'0 0.0
2017-Jun-26 00:58N 57°30' E 010°30'0 0.0
2017-Jun-26 00:30N 57°30' E 010°30'0 0.0
2017-Jun-26 00:00N 57°30' E 010°30'0 0.0
2017-Jun-25 23:29N 57°30' E 010°30'0 0.0
2017-Jun-25 02:15N 57°30' E 010°30'0 0.0
2017-Jun-25 01:59N 57°30' E 010°30'0 0.0
2017-Jun-25 01:30N 57°30' E 010°30'0 0.0
2017-Jun-25 01:00N 57°30' E 010°30'0 0.0
2017-Jun-25 00:30N 57°30' E 010°30'0 0.0
2017-Jun-23 16:14N 57°30' E 010°30'0 0.0
2017-Jun-23 11:34N 57°30' E 010°30'0 0.0
2017-Jun-23 11:20N 57°30' E 010°30'0 0.0
2017-Jun-23 10:59N 57°30' E 010°30'0 0.0
2017-Jun-23 10:30N 57°30' E 010°30'0 0.0
2017-Jun-23 10:00N 57°30' E 010°30'0 0.0
2017-Jun-23 09:29N 57°30' E 010°30'0 0.0
2017-Jun-23 08:49N 57°30' E 010°30'0 0.0
2017-Jun-23 08:30N 57°30' E 010°30'0 0.0
2017-Jun-23 08:00N 57°30' E 010°30'0 0.0
2017-Jun-23 07:30N 57°30' E 010°30'0 0.0
2017-Jun-23 07:00N 57°30' E 010°30'0 0.0
2017-Jun-23 06:30N 57°30' E 010°30'0 0.0
2017-Jun-23 05:59N 57°30' E 010°30'0 0.0
2017-Jun-23 05:30N 57°30' E 010°30'0 0.0
2017-Jun-23 05:00N 57°30' E 010°30'0 0.0
2017-Jun-23 04:25N 57°30' E 010°30'0 0.3
2017-Jun-23 04:00N 57°30' E 010°30'3 5.8
2017-Jun-23 03:30N 57°29' E 010°35'4 7.0
2017-Jun-23 03:00N 57°28' E 010°41'4 7.1
2017-Jun-23 02:30N 57°27' E 010°48'2 3.1
2017-Jun-23 02:00N 57°27' E 010°51'1 2.5
2017-Jun-23 01:30N 57°28' E 010°53'1 2.6
2017-Jun-23 00:59N 57°28' E 010°55'1 2.7
2017-Jun-23 00:30N 57°29' E 010°57'1 2.4
2017-Jun-22 23:59N 57°30' E 010°59'1 2.4
2017-Jun-22 23:30N 57°31' E 011°00'1 2.5
2017-Jun-22 23:00N 57°32' E 011°02'1 1.6
2017-Jun-22 22:30N 57°31' E 011°01'1 2.5
2017-Jun-22 21:59N 57°30' E 010°59'1 2.5
2017-Jun-22 21:28N 57°29' E 010°57'1 2.6
2017-Jun-22 20:59N 57°29' E 010°55'1 2.6
2017-Jun-22 20:30N 57°28' E 010°53'1 2.5
2017-Jun-22 19:58N 57°28' E 010°50'1 2.8
2017-Jun-22 19:30N 57°28' E 010°48'3 6.5
2017-Jun-22 19:00N 57°28' E 010°42'3 6.6
2017-Jun-22 18:30N 57°29' E 010°36'3 5.9
2017-Jun-22 18:00N 57°30' E 010°31'0 0.2
2017-Jun-22 17:23N 57°30' E 010°30'0 0.0
2017-Jun-22 16:58N 57°30' E 010°30'0 0.0
2017-Jun-22 07:52N 57°30' E 010°30'0 0.0
2017-Jun-22 07:28N 57°30' E 010°30'0 0.0
2017-Jun-22 06:59N 57°30' E 010°30'0 0.0
2017-Jun-22 06:29N 57°30' E 010°30'0 0.0
2017-Jun-22 05:59N 57°30' E 010°30'1 0.8
2017-Jun-22 04:29N 57°30' E 010°32'5 2.8
2017-Jun-22 02:34N 57°27' E 010°41'0 7.2
2017-Jun-22 02:30N 57°27' E 010°41'3 6.1
2017-Jun-22 01:56N 57°25' E 010°47'1 2.0
2017-Jun-22 01:15N 57°26' E 010°49'1 2.7
2017-Jun-22 00:57N 57°27' E 010°50'1 2.7
2017-Jun-22 00:30N 57°27' E 010°52'1 2.6
2017-Jun-22 00:00N 57°28' E 010°55'1 2.6
2017-Jun-21 23:29N 57°28' E 010°57'1 2.4
2017-Jun-21 22:58N 57°29' E 010°59'1 1.8
2017-Jun-21 22:29N 57°28' E 010°58'1 2.5
2017-Jun-21 22:00N 57°27' E 010°56'1 2.5
2017-Jun-21 21:30N 57°27' E 010°54'1 2.6
2017-Jun-21 20:59N 57°26' E 010°52'1 2.6
2017-Jun-21 20:30N 57°25' E 010°50'1 2.6
2017-Jun-21 20:00N 57°24' E 010°48'1 2.6
2017-Jun-21 19:30N 57°24' E 010°46'6 6.4
2017-Jun-21 18:32N 57°28' E 010°38'0 6.6
2017-Jun-21 18:28N 57°29' E 010°37'3 5.6
2017-Jun-21 17:59N 57°29' E 010°33'5 0.3
2017-Jun-21 01:33N 57°28' E 010°41'0 2.7
2017-Jun-21 01:28N 57°27' E 010°41'2 2.6
2017-Jun-21 00:53N 57°26' E 010°41'2 2.6
2017-Jun-21 00:13N 57°24' E 010°42'2 2.5
2017-Jun-20 23:32N 57°23' E 010°44'3 0.1
2017-Jun-19 23:58N 57°26' E 010°42'2 2.5
2017-Jun-19 23:12N 57°24' E 010°43'1 2.6
2017-Jun-19 23:00N 57°24' E 010°44'7 2.3
2017-Jun-19 19:44N 57°31' E 010°42'1 5.4
2017-Jun-19 19:29N 57°31' E 010°39'2 4.7
2017-Jun-19 19:00N 57°31' E 010°35'3 5.1
2017-Jun-19 18:30N 57°30' E 010°31'0 0.3
2017-Jun-19 17:59N 57°30' E 010°30'0 0.0
2017-Jun-19 17:28N 57°30' E 010°30'0 0.0
2017-Jun-19 16:49N 57°30' E 010°30'0 0.0
2017-Jun-19 16:25N 57°30' E 010°30'0 0.0
2017-Jun-19 08:27N 57°30' E 010°30'0 0.0
2017-Jun-19 08:00N 57°30' E 010°30'0 0.0
2017-Jun-19 07:30N 57°30' E 010°30'0 0.0
2017-Jun-19 06:16N 57°30' E 010°30'0 0.0
2017-Jun-19 05:48N 57°30' E 010°30'0 0.0
2017-Jun-19 04:52N 57°30' E 010°30'0 0.3
2017-Jun-19 04:30N 57°30' E 010°30'1 1.8
2017-Jun-19 03:59N 57°30' E 010°32'0 0.4
2017-Jun-19 03:27N 57°30' E 010°32'1 2.6
2017-Jun-19 03:00N 57°29' E 010°34'3 6.3
2017-Jun-19 02:29N 57°29' E 010°40'2 2.8
2017-Jun-19 01:54N 57°29' E 010°42'1 2.6
2017-Jun-19 01:28N 57°30' E 010°42'1 2.6
2017-Jun-19 00:59N 57°32' E 010°42'1 2.6
2017-Jun-19 00:28N 57°33' E 010°41'2 2.4
2017-Jun-18 23:46N 57°34' E 010°41'1 2.4
2017-Jun-18 23:24N 57°34' E 010°42'1 2.6
2017-Jun-18 22:58N 57°33' E 010°42'1 2.6
2017-Jun-18 22:30N 57°31' E 010°42'2 2.6
2017-Jun-18 21:54N 57°30' E 010°43'1 2.6
2017-Jun-18 21:25N 57°29' E 010°43'2 2.5
2017-Jun-18 20:38N 57°27' E 010°43'0 2.6
2017-Jun-18 20:30N 57°26' E 010°43'1 2.5
2017-Jun-18 19:57N 57°25' E 010°44'4 3.6
2017-Jun-18 18:58N 57°27' E 010°39'4 5.4
2017-Jun-18 18:10N 57°30' E 010°32'1 0.1
2017-Jun-18 05:46N 57°30' E 010°30'0 0.0
2017-Jun-18 05:11N 57°30' E 010°30'0 0.3
2017-Jun-18 04:44N 57°30' E 010°30'1 3.7
2017-Jun-18 04:30N 57°30' E 010°32'  

Dump ship's entire track history